7.300 kWh

EHAM AMSTERDAM/SCHIPHOL NLD -3 m.
METAR EHAM 241625Z 31013KT 9999 FEW018 SCT022 17/11 Q1023 NOSIG

EHAM AMSTERDAM/SCHIPHOL NLD -3 m.
TAF EHAM 241111Z 2412/2518 33010KT 9999 SCT025
BECMG 2418/2421 34005KT
PROB30 2501/2505 SCT007 BKN012
BECMG 2508/2511 32010KT